Anzahl Datensätze: 144
min. Temperatur: 1.4 °C
max. Temperatur: 10.3 °C
max. Windgeschwindigkeit: 20.2 km/h
Niederschlagsumme: 0.0 mm
| Datum |
Zeit |
Temp °C |
Feuchte % |
Taupunkt °C |
Luftdruck hPa |
Wind km/h |
Windrichtung |
Strahlung w/m² |
Niederschlag mm |
|---|---|---|---|---|---|---|---|---|---|
| 25.01.2025 | 00:02 | 2.8 | 83 | 0.1 | 1012.7 | 2.2 | N | 0 | 0.0 |
| 25.01.2025 | 00:12 | 3.2 | 80 | 0.0 | 1012.6 | 1.4 | S | 0 | 0.0 |
| 25.01.2025 | 00:22 | 3.1 | 78 | -0.3 | 1012.7 | 0.4 | N | 0 | 0.0 |
| 25.01.2025 | 00:32 | 2.6 | 84 | 0.1 | 1012.8 | 3.6 | S | 0 | 0.0 |
| 25.01.2025 | 00:42 | 2.4 | 85 | 0.1 | 1012.7 | 1.4 | N | 0 | 0.0 |
| 25.01.2025 | 00:52 | 2.7 | 81 | -0.2 | 1012.5 | 1.8 | WSW | 0 | 0.0 |
| 25.01.2025 | 01:02 | 2.6 | 82 | -0.2 | 1012.4 | 2.9 | SSO | 0 | 0.0 |
| 25.01.2025 | 01:12 | 1.9 | 85 | -0.4 | 1012.5 | 2.2 | S | 0 | 0.0 |
| 25.01.2025 | 01:22 | 1.5 | 84 | -0.9 | 1012.6 | 6.5 | NNO | 0 | 0.0 |
| 25.01.2025 | 01:32 | 2.7 | 80 | -0.5 | 1012.3 | 4.3 | S | 0 | 0.0 |
| 25.01.2025 | 01:42 | 2.1 | 84 | -0.3 | 1012.5 | 1.1 | N | 0 | 0.0 |
| 25.01.2025 | 01:52 | 2.0 | 83 | -0.6 | 1012.4 | 1.4 | N | 0 | 0.0 |
| 25.01.2025 | 02:03 | 1.9 | 80 | -1.1 | 1012.3 | 1.8 | NO | 0 | 0.0 |
| 25.01.2025 | 02:13 | 2.3 | 80 | -0.9 | 1012.3 | 2.5 | NNO | 0 | 0.0 |
| 25.01.2025 | 02:23 | 2.2 | 78 | -1.3 | 1012.2 | 0.4 | N | 0 | 0.0 |
| 25.01.2025 | 02:33 | 2.4 | 76 | -1.4 | 1012.1 | 3.2 | NNO | 0 | 0.0 |
| 25.01.2025 | 02:43 | 2.4 | 77 | -1.3 | 1012.1 | 3.2 | N | 0 | 0.0 |
| 25.01.2025 | 02:53 | 2.3 | 80 | -0.8 | 1012.3 | 3.6 | NNO | 0 | 0.0 |
| 25.01.2025 | 03:03 | 2.7 | 81 | -0.3 | 1012.2 | 3.2 | S | 0 | 0.0 |
| 25.01.2025 | 03:13 | 2.1 | 83 | -0.5 | 1012.0 | 2.5 | S | 0 | 0.0 |
| 25.01.2025 | 03:23 | 1.4 | 85 | -0.9 | 1012.2 | 2.2 | NNO | 0 | 0.0 |
| 25.01.2025 | 03:33 | 1.8 | 85 | -0.6 | 1012.1 | 1.4 | N | 0 | 0.0 |
| 25.01.2025 | 03:43 | 2.0 | 84 | -0.4 | 1012.0 | 2.2 | ONO | 0 | 0.0 |
| 25.01.2025 | 03:53 | 1.8 | 84 | -0.7 | 1012.3 | 2.9 | NNO | 0 | 0.0 |
| 25.01.2025 | 04:03 | 2.5 | 79 | -0.8 | 1012.0 | 2.9 | S | 0 | 0.0 |
| 25.01.2025 | 04:13 | 2.5 | 83 | -0.1 | 1011.8 | 0.4 | N | 0 | 0.0 |
| 25.01.2025 | 04:23 | 2.0 | 83 | -0.5 | 1012.0 | 2.5 | N | 0 | 0.0 |
| 25.01.2025 | 04:33 | 2.5 | 80 | -0.6 | 1012.2 | 0.7 | N | 0 | 0.0 |
| 25.01.2025 | 04:43 | 2.4 | 81 | -0.4 | 1012.1 | 2.2 | O | 0 | 0.0 |
| 25.01.2025 | 04:53 | 2.7 | 81 | -0.2 | 1012.0 | 1.4 | S | 0 | 0.0 |
| 25.01.2025 | 05:03 | 2.4 | 83 | -0.2 | 1012.3 | 4.3 | N | 0 | 0.0 |
| 25.01.2025 | 05:13 | 2.8 | 84 | 0.3 | 1012.2 | 5.0 | NO | 0 | 0.0 |
| 25.01.2025 | 05:23 | 2.1 | 83 | -0.4 | 1012.5 | 2.2 | SW | 0 | 0.0 |
| 25.01.2025 | 05:33 | 1.4 | 84 | -0.9 | 1012.6 | 1.1 | N | 0 | 0.0 |
| 25.01.2025 | 05:43 | 1.9 | 83 | -0.7 | 1012.4 | 6.8 | S | 0 | 0.0 |
| 25.01.2025 | 05:53 | 1.9 | 84 | -0.6 | 1012.7 | 2.5 | S | 0 | 0.0 |
| 25.01.2025 | 06:03 | 2.2 | 82 | -0.5 | 1012.3 | 4.7 | S | 0 | 0.0 |
| 25.01.2025 | 06:13 | 1.8 | 84 | -0.6 | 1012.1 | 2.5 | ONO | 0 | 0.0 |
| 25.01.2025 | 06:23 | 1.4 | 85 | -0.8 | 1011.8 | 5.0 | N | 0 | 0.0 |
| 25.01.2025 | 06:33 | 2.0 | 83 | -0.6 | 1012.0 | 0.4 | SW | 0 | 0.0 |
| 25.01.2025 | 06:43 | 1.5 | 83 | -1.0 | 1011.9 | 3.6 | NNO | 0 | 0.0 |
| 25.01.2025 | 06:53 | 1.6 | 84 | -0.8 | 1012.1 | 4.0 | NNO | 0 | 0.0 |
| 25.01.2025 | 07:03 | 1.9 | 83 | -0.7 | 1012.5 | 1.4 | N | 0 | 0.0 |
| 25.01.2025 | 07:13 | 1.9 | 83 | -0.7 | 1012.2 | 4.7 | NNO | 0 | 0.0 |
| 25.01.2025 | 07:23 | 2.6 | 78 | -0.8 | 1011.9 | 4.3 | SSW | 0 | 0.0 |
| 25.01.2025 | 07:33 | 2.3 | 81 | -0.7 | 1012.2 | 5.4 | N | 0 | 0.0 |
| 25.01.2025 | 07:44 | 2.7 | 80 | -0.4 | 1012.0 | 2.2 | NNO | 0 | 0.0 |
| 25.01.2025 | 07:54 | 2.4 | 81 | -0.6 | 1012.2 | 1.8 | NNW | 0 | 0.0 |
| 25.01.2025 | 08:04 | 2.0 | 83 | -0.6 | 1012.5 | 2.2 | NW | 2 | 0.0 |
| 25.01.2025 | 08:14 | 2.0 | 82 | -0.7 | 1012.8 | 2.9 | N | 7 | 0.0 |
| 25.01.2025 | 08:24 | 2.3 | 81 | -0.6 | 1012.6 | 1.8 | NO | 14 | 0.0 |
| 25.01.2025 | 08:34 | 2.2 | 82 | -0.6 | 1012.9 | 4.0 | NNO | 20 | 0.0 |
| 25.01.2025 | 08:44 | 1.9 | 84 | -0.5 | 1013.1 | 2.9 | NNO | 27 | 0.0 |
| 25.01.2025 | 08:54 | 2.3 | 84 | -0.2 | 1013.2 | 3.6 | S | 33 | 0.0 |
| 25.01.2025 | 09:04 | 2.5 | 82 | -0.1 | 1013.0 | 1.4 | NNO | 50 | 0.0 |
| 25.01.2025 | 09:14 | 2.8 | 81 | -0.1 | 1012.8 | 3.6 | NNO | 67 | 0.0 |
| 25.01.2025 | 09:24 | 3.1 | 80 | 0.0 | 1012.8 | 2.2 | NNO | 64 | 0.0 |
| 25.01.2025 | 09:34 | 2.2 | 82 | -0.6 | 1013.2 | 1.1 | N | 72 | 0.0 |
| 25.01.2025 | 09:44 | 2.6 | 82 | -0.2 | 1012.9 | 3.2 | S | 76 | 0.0 |
| 25.01.2025 | 09:54 | 3.5 | 79 | 0.2 | 1012.6 | 4.3 | S | 77 | 0.0 |
| 25.01.2025 | 10:04 | 3.7 | 77 | 0.0 | 1012.3 | 5.0 | N | 206 | 0.0 |
| 25.01.2025 | 10:14 | 5.4 | 71 | 0.6 | 1011.9 | 4.0 | N | 226 | 0.0 |
| 25.01.2025 | 10:24 | 6.1 | 70 | 1.0 | 1011.6 | 2.2 | SW | 261 | 0.0 |
| 25.01.2025 | 10:34 | 5.0 | 74 | 0.8 | 1011.8 | 2.9 | SSW | 254 | 0.0 |
| 25.01.2025 | 10:44 | 5.2 | 75 | 1.1 | 1011.7 | 1.1 | SSO | 297 | 0.0 |
| 25.01.2025 | 10:54 | 6.0 | 72 | 1.4 | 1011.4 | 2.9 | SSW | 317 | 0.0 |
| 25.01.2025 | 11:04 | 5.2 | 77 | 1.5 | 1011.6 | 4.3 | S | 358 | 0.0 |
| 25.01.2025 | 11:14 | 6.4 | 73 | 1.9 | 1011.0 | 2.5 | WSW | 391 | 0.0 |
| 25.01.2025 | 11:24 | 6.0 | 72 | 1.4 | 1010.9 | 4.7 | S | 380 | 0.0 |
| 25.01.2025 | 11:34 | 6.4 | 71 | 1.6 | 1010.8 | 4.0 | WSW | 377 | 0.0 |
| 25.01.2025 | 11:44 | 6.7 | 68 | 1.2 | 1010.1 | 3.2 | SSW | 341 | 0.0 |
| 25.01.2025 | 11:54 | 7.1 | 66 | 1.3 | 1010.0 | 1.8 | SW | 341 | 0.0 |
| 25.01.2025 | 12:04 | 6.8 | 67 | 1.1 | 1009.8 | 1.8 | SW | 319 | 0.0 |
| 25.01.2025 | 12:14 | 8.0 | 64 | 1.5 | 1009.2 | 7.9 | SSW | 325 | 0.0 |
| 25.01.2025 | 12:24 | 7.0 | 74 | 2.6 | 1009.7 | 1.8 | WSW | 332 | 0.0 |
| 25.01.2025 | 12:34 | 7.6 | 73 | 3.0 | 1009.6 | 3.2 | N | 292 | 0.0 |
| 25.01.2025 | 12:44 | 7.5 | 72 | 2.8 | 1009.5 | 1.4 | N | 319 | 0.0 |
| 25.01.2025 | 12:54 | 8.1 | 64 | 1.8 | 1009.2 | 1.8 | WNW | 277 | 0.0 |
| 25.01.2025 | 13:04 | 8.1 | 64 | 1.7 | 1009.1 | 2.2 | WNW | 248 | 0.0 |
| 25.01.2025 | 13:15 | 8.7 | 60 | 1.5 | 1008.8 | 1.4 | W | 175 | 0.0 |
| 25.01.2025 | 13:25 | 9.1 | 59 | 1.5 | 1008.6 | 1.1 | N | 219 | 0.0 |
| 25.01.2025 | 13:35 | 9.3 | 57 | 1.3 | 1008.6 | 4.0 | WSW | 257 | 0.0 |
| 25.01.2025 | 13:45 | 9.3 | 61 | 2.1 | 1008.6 | 1.8 | W | 226 | 0.0 |
| 25.01.2025 | 13:55 | 9.5 | 56 | 1.3 | 1008.5 | 4.3 | WSW | 231 | 0.0 |
| 25.01.2025 | 14:05 | 9.2 | 58 | 1.4 | 1008.4 | 3.6 | NNO | 231 | 0.0 |
| 25.01.2025 | 14:15 | 10.1 | 54 | 1.0 | 1008.0 | 2.2 | NNO | 179 | 0.0 |
| 25.01.2025 | 14:25 | 10.3 | 51 | 0.6 | 1008.1 | 1.4 | N | 234 | 0.0 |
| 25.01.2025 | 14:35 | 8.5 | 61 | 1.4 | 1008.5 | 1.4 | SSW | 225 | 0.0 |
| 25.01.2025 | 14:45 | 9.5 | 55 | 1.0 | 1008.5 | 1.1 | NNO | 225 | 0.0 |
| 25.01.2025 | 14:55 | 10.0 | 52 | 0.6 | 1008.1 | 3.2 | SSW | 170 | 0.0 |
| 25.01.2025 | 15:05 | 10.1 | 53 | 0.8 | 1008.0 | 1.8 | N | 261 | 0.0 |
| 25.01.2025 | 15:15 | 8.9 | 59 | 1.3 | 1008.0 | 4.7 | S | 139 | 0.0 |
| 25.01.2025 | 15:25 | 8.6 | 59 | 1.0 | 1008.1 | 5.0 | S | 142 | 0.0 |
| 25.01.2025 | 15:35 | 9.0 | 57 | 0.9 | 1008.1 | 3.2 | NNW | 221 | 0.0 |
| 25.01.2025 | 15:45 | 9.1 | 56 | 0.7 | 1008.0 | 0.7 | N | 188 | 0.0 |
| 25.01.2025 | 15:55 | 8.5 | 61 | 1.4 | 1008.0 | 3.6 | SW | 160 | 0.0 |
| 25.01.2025 | 16:05 | 9.6 | 55 | 1.0 | 1008.1 | 5.0 | S | 139 | 0.0 |
| 25.01.2025 | 16:15 | 8.8 | 57 | 0.8 | 1008.0 | 4.7 | SSW | 121 | 0.0 |
| 25.01.2025 | 16:25 | 8.7 | 59 | 1.3 | 1008.0 | 5.4 | NNO | 104 | 0.0 |
| 25.01.2025 | 16:35 | 8.9 | 59 | 1.3 | 1008.0 | 4.0 | NW | 85 | 0.0 |
| 25.01.2025 | 16:45 | 8.6 | 62 | 1.6 | 1008.3 | 5.4 | NNO | 16 | 0.0 |
| 25.01.2025 | 16:55 | 8.6 | 59 | 1.0 | 1008.5 | 3.2 | SW | 13 | 0.0 |
| 25.01.2025 | 17:05 | 8.2 | 61 | 1.2 | 1008.4 | 3.6 | SSO | 8 | 0.0 |
| 25.01.2025 | 17:15 | 8.0 | 62 | 1.1 | 1008.3 | 4.3 | NO | 4 | 0.0 |
| 25.01.2025 | 17:25 | 9.0 | 55 | 0.4 | 1008.1 | 4.3 | SSW | 2 | 0.0 |
| 25.01.2025 | 17:35 | 7.9 | 63 | 1.2 | 1008.6 | 1.4 | NO | 0 | 0.0 |
| 25.01.2025 | 17:45 | 7.4 | 65 | 1.2 | 1008.9 | 1.4 | N | 0 | 0.0 |
| 25.01.2025 | 17:55 | 7.4 | 65 | 1.2 | 1009.1 | 1.4 | ONO | 0 | 0.0 |
| 25.01.2025 | 18:05 | 7.5 | 63 | 0.9 | 1009.3 | 7.6 | NNO | 0 | 0.0 |
| 25.01.2025 | 18:15 | 7.9 | 61 | 0.8 | 1009.2 | 4.7 | N | 0 | 0.0 |
| 25.01.2025 | 18:25 | 7.9 | 59 | 0.4 | 1009.8 | 1.4 | OSO | 0 | 0.0 |
| 25.01.2025 | 18:35 | 6.1 | 70 | 1.0 | 1010.2 | 2.9 | NNO | 0 | 0.0 |
| 25.01.2025 | 18:45 | 6.2 | 69 | 0.9 | 1010.2 | 2.5 | NNO | 0 | 0.0 |
| 25.01.2025 | 18:56 | 6.4 | 66 | 0.5 | 1010.0 | 2.5 | NNO | 0 | 0.0 |
| 25.01.2025 | 19:06 | 6.8 | 62 | 0.1 | 1009.7 | 2.9 | NNO | 0 | 0.0 |
| 25.01.2025 | 19:16 | 6.2 | 66 | 0.4 | 1009.5 | 0.7 | N | 0 | 0.0 |
| 25.01.2025 | 19:26 | 5.1 | 70 | 0.1 | 1009.7 | 2.9 | NNO | 0 | 0.0 |
| 25.01.2025 | 19:36 | 5.5 | 65 | -0.5 | 1009.7 | 3.2 | NO | 0 | 0.0 |
| 25.01.2025 | 19:46 | 5.9 | 68 | 0.5 | 1009.4 | 2.9 | S | 0 | 0.0 |
| 25.01.2025 | 19:56 | 4.2 | 74 | -0.1 | 1009.7 | 4.3 | NNO | 0 | 0.0 |
| 25.01.2025 | 20:06 | 5.0 | 70 | -0.1 | 1009.2 | 5.4 | NNO | 0 | 0.0 |
| 25.01.2025 | 20:16 | 5.5 | 69 | 0.2 | 1008.7 | 0.7 | N | 0 | 0.0 |
| 25.01.2025 | 20:26 | 5.6 | 68 | 0.2 | 1008.6 | 0.4 | N | 0 | 0.0 |
| 25.01.2025 | 20:36 | 4.9 | 74 | 0.7 | 1008.4 | 0.4 | N | 0 | 0.0 |
| 25.01.2025 | 20:46 | 4.8 | 79 | 1.5 | 1008.4 | 3.6 | NO | 0 | 0.0 |
| 25.01.2025 | 20:56 | 5.3 | 76 | 1.4 | 1008.2 | 2.5 | NO | 0 | 0.0 |
| 25.01.2025 | 21:06 | 5.2 | 76 | 1.3 | 1008.2 | 2.9 | S | 0 | 0.0 |
| 25.01.2025 | 21:16 | 5.3 | 74 | 1.0 | 1007.8 | 2.9 | WSW | 0 | 0.0 |
| 25.01.2025 | 21:26 | 5.1 | 76 | 1.1 | 1008.0 | 4.7 | NNO | 0 | 0.0 |
| 25.01.2025 | 21:36 | 6.4 | 65 | 0.2 | 1007.6 | 1.8 | NNW | 0 | 0.0 |
| 25.01.2025 | 21:46 | 6.2 | 66 | 0.4 | 1007.4 | 4.0 | O | 0 | 0.0 |
| 25.01.2025 | 21:56 | 5.6 | 77 | 1.8 | 1007.7 | 1.4 | ONO | 0 | 0.0 |
| 25.01.2025 | 22:06 | 5.3 | 76 | 1.4 | 1008.0 | 0.7 | NW | 0 | 0.0 |
| 25.01.2025 | 22:16 | 5.6 | 71 | 0.7 | 1007.9 | 1.4 | N | 0 | 0.0 |
| 25.01.2025 | 22:26 | 6.3 | 65 | 0.2 | 1007.7 | 4.3 | NNO | 0 | 0.0 |
| 25.01.2025 | 22:36 | 5.6 | 74 | 1.4 | 1007.6 | 2.2 | NW | 0 | 0.0 |
| 25.01.2025 | 22:46 | 5.2 | 76 | 1.3 | 1007.9 | 4.0 | N | 0 | 0.0 |
| 25.01.2025 | 22:56 | 5.1 | 77 | 1.3 | 1007.9 | 5.0 | N | 0 | 0.0 |
| 25.01.2025 | 23:06 | 5.0 | 78 | 1.4 | 1008.0 | 3.2 | NNO | 0 | 0.0 |
| 25.01.2025 | 23:16 | 5.0 | 76 | 1.2 | 1007.9 | 5.4 | NNO | 0 | 0.0 |
| 25.01.2025 | 23:26 | 5.0 | 77 | 1.3 | 1007.9 | 4.7 | NO | 0 | 0.0 |
| 25.01.2025 | 23:36 | 5.6 | 73 | 1.2 | 1007.9 | 5.0 | S | 0 | 0.0 |
| 25.01.2025 | 23:46 | 5.6 | 71 | 0.8 | 1008.0 | 5.0 | S | 0 | 0.0 |
| 25.01.2025 | 23:56 | 5.3 | 75 | 1.3 | 1008.0 | 2.2 | NO | 0 | 0.0 |